sensor_id;sensor_type;location;lat;lon;timestamp;pressure;altitude;pressure_sealevel;temperature;humidity
72124;BME280;59998;37.126;-8.538;2022-08-03T00:03:49;101012.9;;;23.1;60.9
72124;BME280;59998;37.126;-8.538;2022-08-03T00:08:35;101012.1;;;23.1;61.3
72124;BME280;59998;37.126;-8.538;2022-08-03T00:13:21;101003.1;;;23.1;61.1
72124;BME280;59998;37.126;-8.538;2022-08-03T00:18:07;101003.5;;;23.0;61.5
72124;BME280;59998;37.126;-8.538;2022-08-03T00:22:56;101003.9;;;23.0;61.5
72124;BME280;59998;37.126;-8.538;2022-08-03T00:27:42;101003.1;;;23.0;61.6
72124;BME280;59998;37.126;-8.538;2022-08-03T00:32:28;101001.5;;;23.0;61.8
72124;BME280;59998;37.126;-8.538;2022-08-03T00:37:15;100998.7;;;22.9;62.1
72124;BME280;59998;37.126;-8.538;2022-08-03T00:42:03;100997.8;;;22.7;62.6
72124;BME280;59998;37.126;-8.538;2022-08-03T00:46:49;100992.7;;;22.7;62.8
72124;BME280;59998;37.126;-8.538;2022-08-03T00:51:35;100989.1;;;22.6;63.0
72124;BME280;59998;37.126;-8.538;2022-08-03T00:56:23;100982.9;;;22.6;63.0
72124;BME280;59998;37.126;-8.538;2022-08-03T01:01:09;100976.6;;;22.6;63.2
72124;BME280;59998;37.126;-8.538;2022-08-03T01:05:59;100972.6;;;22.5;63.8
72124;BME280;59998;37.126;-8.538;2022-08-03T01:10:53;100966.4;;;22.5;63.3
72124;BME280;59998;37.126;-8.538;2022-08-03T01:15:48;100962.5;;;22.5;63.6
72124;BME280;59998;37.126;-8.538;2022-08-03T01:20:37;100962.1;;;22.5;63.4
72124;BME280;59998;37.126;-8.538;2022-08-03T01:25:32;100961.7;;;22.5;63.7
72124;BME280;59998;37.126;-8.538;2022-08-03T01:30:19;100956.6;;;22.5;63.8
72124;BME280;59998;37.126;-8.538;2022-08-03T01:35:09;100959.4;;;22.6;63.8
72124;BME280;59998;37.126;-8.538;2022-08-03T01:39:57;100957.8;;;22.5;63.5
72124;BME280;59998;37.126;-8.538;2022-08-03T01:44:46;100960.8;;;22.4;64.0
72124;BME280;59998;37.126;-8.538;2022-08-03T01:49:37;100964.0;;;22.5;63.8
72124;BME280;59998;37.126;-8.538;2022-08-03T01:54:25;100965.6;;;22.5;63.8
72124;BME280;59998;37.126;-8.538;2022-08-03T01:59:13;100960.1;;;22.4;63.4
72124;BME280;59998;37.126;-8.538;2022-08-03T02:04:01;100958.1;;;22.4;63.4
72124;BME280;59998;37.126;-8.538;2022-08-03T02:08:52;100962.4;;;22.4;63.4
72124;BME280;59998;37.126;-8.538;2022-08-03T02:13:39;100962.0;;;22.5;62.9
72124;BME280;59998;37.126;-8.538;2022-08-03T02:18:27;100967.1;;;22.5;62.5
72124;BME280;59998;37.126;-8.538;2022-08-03T02:23:15;100953.0;;;22.5;62.6
72124;BME280;59998;37.126;-8.538;2022-08-03T02:28:05;100949.1;;;22.4;62.5
72124;BME280;59998;37.126;-8.538;2022-08-03T02:32:54;100943.6;;;22.3;63.1
72124;BME280;59998;37.126;-8.538;2022-08-03T02:37:45;100954.5;;;22.2;63.6
72124;BME280;59998;37.126;-8.538;2022-08-03T02:42:33;100963.8;;;22.1;63.7
72124;BME280;59998;37.126;-8.538;2022-08-03T02:47:21;100949.3;;;22.1;64.2
72124;BME280;59998;37.126;-8.538;2022-08-03T02:52:10;100955.5;;;22.1;64.3
72124;BME280;59998;37.126;-8.538;2022-08-03T02:57:00;100954.7;;;22.0;64.3
72124;BME280;59998;37.126;-8.538;2022-08-03T03:01:47;100953.2;;;22.0;64.5
72124;BME280;59998;37.126;-8.538;2022-08-03T03:06:34;100952.0;;;22.1;64.9
72124;BME280;59998;37.126;-8.538;2022-08-03T03:11:21;100948.4;;;22.0;64.8
72124;BME280;59998;37.126;-8.538;2022-08-03T03:16:11;100944.5;;;22.0;65.3
72124;BME280;59998;37.126;-8.538;2022-08-03T03:20:58;100945.6;;;21.9;65.6
72124;BME280;59998;37.126;-8.538;2022-08-03T03:25:45;100939.3;;;21.9;65.7
72124;BME280;59998;37.126;-8.538;2022-08-03T03:30:33;100935.7;;;21.8;65.9
72124;BME280;59998;37.126;-8.538;2022-08-03T03:35:22;100937.7;;;21.8;66.4
72124;BME280;59998;37.126;-8.538;2022-08-03T03:40:09;100936.9;;;21.8;66.3
72124;BME280;59998;37.126;-8.538;2022-08-03T03:44:56;100934.1;;;21.7;66.2
72124;BME280;59998;37.126;-8.538;2022-08-03T03:49:42;100937.2;;;21.7;66.4
72124;BME280;59998;37.126;-8.538;2022-08-03T03:54:41;100932.0;;;21.6;66.4
72124;BME280;59998;37.126;-8.538;2022-08-03T03:59:28;100939.1;;;21.6;65.9
72124;BME280;59998;37.126;-8.538;2022-08-03T04:04:14;100936.7;;;21.6;65.9
72124;BME280;59998;37.126;-8.538;2022-08-03T04:09:01;100941.8;;;21.6;65.8
72124;BME280;59998;37.126;-8.538;2022-08-03T04:13:50;100939.1;;;21.6;65.5
72124;BME280;59998;37.126;-8.538;2022-08-03T04:18:40;100935.1;;;21.6;65.9
72124;BME280;59998;37.126;-8.538;2022-08-03T04:23:27;100941.4;;;21.6;66.4
72124;BME280;59998;37.126;-8.538;2022-08-03T04:28:15;100946.9;;;21.6;66.5
72124;BME280;59998;37.126;-8.538;2022-08-03T04:33:03;100946.1;;;21.6;66.6
72124;BME280;59998;37.126;-8.538;2022-08-03T04:37:51;100948.7;;;21.5;66.7
72124;BME280;59998;37.126;-8.538;2022-08-03T04:42:39;100944.8;;;21.5;66.8
72124;BME280;59998;37.126;-8.538;2022-08-03T04:47:29;100946.7;;;21.4;66.2
72124;BME280;59998;37.126;-8.538;2022-08-03T04:52:15;100947.1;;;21.4;65.9
72124;BME280;59998;37.126;-8.538;2022-08-03T04:57:02;100959.2;;;21.5;65.7
72124;BME280;59998;37.126;-8.538;2022-08-03T05:01:48;100959.9;;;21.4;65.6
72124;BME280;59998;37.126;-8.538;2022-08-03T05:06:35;100954.5;;;21.4;65.4
72124;BME280;59998;37.126;-8.538;2022-08-03T05:11:21;100959.6;;;21.4;65.1
72124;BME280;59998;37.126;-8.538;2022-08-03T05:16:08;100961.9;;;21.4;64.9
72124;BME280;59998;37.126;-8.538;2022-08-03T05:20:54;100956.0;;;21.4;64.2
72124;BME280;59998;37.126;-8.538;2022-08-03T05:25:40;100963.0;;;21.3;64.1
72124;BME280;59998;37.126;-8.538;2022-08-03T05:30:26;100967.2;;;21.3;63.8
72124;BME280;59998;37.126;-8.538;2022-08-03T05:35:13;100969.2;;;21.3;63.7
72124;BME280;59998;37.126;-8.538;2022-08-03T05:39:59;100963.3;;;21.3;63.7
72124;BME280;59998;37.126;-8.538;2022-08-03T05:44:45;100968.0;;;21.3;63.6
72124;BME280;59998;37.126;-8.538;2022-08-03T05:49:32;100976.2;;;21.3;64.0
72124;BME280;59998;37.126;-8.538;2022-08-03T05:54:18;100980.9;;;21.3;63.9
72124;BME280;59998;37.126;-8.538;2022-08-03T05:59:04;100984.0;;;21.3;64.1
72124;BME280;59998;37.126;-8.538;2022-08-03T06:03:50;100990.6;;;21.3;64.2
72124;BME280;59998;37.126;-8.538;2022-08-03T06:08:41;101002.0;;;21.3;64.0
72124;BME280;59998;37.126;-8.538;2022-08-03T06:13:27;101007.6;;;21.4;63.8
72124;BME280;59998;37.126;-8.538;2022-08-03T06:18:16;101015.0;;;21.5;63.5
72124;BME280;59998;37.126;-8.538;2022-08-03T06:23:05;101024.5;;;21.5;63.1
72124;BME280;59998;37.126;-8.538;2022-08-03T06:27:51;101024.8;;;21.5;63.1
72124;BME280;59998;37.126;-8.538;2022-08-03T06:32:37;101020.9;;;21.4;64.3
72124;BME280;59998;37.126;-8.538;2022-08-03T06:37:24;101025.6;;;21.4;64.6
72124;BME280;59998;37.126;-8.538;2022-08-03T06:42:10;101024.8;;;21.5;64.9
72124;BME280;59998;37.126;-8.538;2022-08-03T06:46:56;101033.5;;;21.5;65.2
72124;BME280;59998;37.126;-8.538;2022-08-03T06:51:43;101034.8;;;21.6;65.5
72124;BME280;59998;37.126;-8.538;2022-08-03T06:56:29;101033.7;;;21.7;65.8
72124;BME280;59998;37.126;-8.538;2022-08-03T07:01:16;101036.0;;;21.7;65.4
72124;BME280;59998;37.126;-8.538;2022-08-03T07:06:02;101038.1;;;21.8;65.3
72124;BME280;59998;37.126;-8.538;2022-08-03T07:10:48;101042.5;;;21.9;64.7
72124;BME280;59998;37.126;-8.538;2022-08-03T07:15:35;101037.4;;;21.9;63.5
72124;BME280;59998;37.126;-8.538;2022-08-03T07:20:24;101038.6;;;21.9;62.8
72124;BME280;59998;37.126;-8.538;2022-08-03T07:25:11;101038.0;;;22.0;62.7
72124;BME280;59998;37.126;-8.538;2022-08-03T07:29:58;101041.5;;;22.1;62.8
72124;BME280;59998;37.126;-8.538;2022-08-03T07:34:44;101035.0;;;22.2;62.8
72124;BME280;59998;37.126;-8.538;2022-08-03T07:39:30;101044.9;;;22.4;62.5
72124;BME280;59998;37.126;-8.538;2022-08-03T07:44:17;101055.5;;;22.4;62.3
72124;BME280;59998;37.126;-8.538;2022-08-03T07:49:03;101054.9;;;22.6;61.7
72124;BME280;59998;37.126;-8.538;2022-08-03T07:53:50;101054.6;;;22.7;61.3
72124;BME280;59998;37.126;-8.538;2022-08-03T07:58:36;101053.1;;;22.8;61.0
72124;BME280;59998;37.126;-8.538;2022-08-03T08:03:22;101055.5;;;23.0;60.7
72124;BME280;59998;37.126;-8.538;2022-08-03T08:08:08;101055.5;;;23.0;60.2
72124;BME280;59998;37.126;-8.538;2022-08-03T08:12:55;101055.6;;;23.1;59.8
72124;BME280;59998;37.126;-8.538;2022-08-03T08:17:43;101051.7;;;23.2;59.8
72124;BME280;59998;37.126;-8.538;2022-08-03T08:22:30;101044.3;;;23.3;59.7
72124;BME280;59998;37.126;-8.538;2022-08-03T08:27:19;101042.8;;;23.4;59.1
72124;BME280;59998;37.126;-8.538;2022-08-03T08:32:05;101043.6;;;23.5;59.4
72124;BME280;59998;37.126;-8.538;2022-08-03T08:36:51;101045.3;;;23.6;59.0
72124;BME280;59998;37.126;-8.538;2022-08-03T08:41:38;101043.3;;;23.7;58.5
72124;BME280;59998;37.126;-8.538;2022-08-03T08:46:24;101046.1;;;23.8;57.7
72124;BME280;59998;37.126;-8.538;2022-08-03T08:51:12;101049.6;;;23.9;57.9
72124;BME280;59998;37.126;-8.538;2022-08-03T08:55:59;101040.6;;;24.0;57.4
72124;BME280;59998;37.126;-8.538;2022-08-03T09:00:47;101042.2;;;24.1;56.6
72124;BME280;59998;37.126;-8.538;2022-08-03T09:05:33;101046.2;;;24.2;57.0
72124;BME280;59998;37.126;-8.538;2022-08-03T09:10:19;101043.8;;;24.3;55.9
72124;BME280;59998;37.126;-8.538;2022-08-03T09:15:17;101037.1;;;24.4;56.0
72124;BME280;59998;37.126;-8.538;2022-08-03T09:20:06;101034.8;;;24.4;55.5
72124;BME280;59998;37.126;-8.538;2022-08-03T09:24:57;101040.7;;;24.5;56.3
72124;BME280;59998;37.126;-8.538;2022-08-03T09:29:46;101035.9;;;24.7;54.8
72124;BME280;59998;37.126;-8.538;2022-08-03T09:34:35;101039.8;;;24.8;55.5
72124;BME280;59998;37.126;-8.538;2022-08-03T09:39:23;101036.7;;;25.0;55.1
72124;BME280;59998;37.126;-8.538;2022-08-03T09:44:09;101036.2;;;25.0;53.7
72124;BME280;59998;37.126;-8.538;2022-08-03T09:49:21;101035.0;;;25.2;53.0
72124;BME280;59998;37.126;-8.538;2022-08-03T09:54:08;101024.8;;;25.3;52.6
72124;BME280;59998;37.126;-8.538;2022-08-03T09:58:55;101019.6;;;25.5;51.5
72124;BME280;59998;37.126;-8.538;2022-08-03T10:03:42;101021.5;;;25.6;51.0
72124;BME280;59998;37.126;-8.538;2022-08-03T10:08:33;101024.5;;;25.7;50.1
72124;BME280;59998;37.126;-8.538;2022-08-03T10:13:21;101019.8;;;25.8;49.7
72124;BME280;59998;37.126;-8.538;2022-08-03T10:18:07;101014.5;;;26.0;48.4
72124;BME280;59998;37.126;-8.538;2022-08-03T10:22:54;101012.8;;;26.1;47.5
72124;BME280;59998;37.126;-8.538;2022-08-03T10:27:43;101014.7;;;26.3;47.0
72124;BME280;59998;37.126;-8.538;2022-08-03T10:32:36;101017.3;;;26.5;48.3
72124;BME280;59998;37.126;-8.538;2022-08-03T10:37:24;101022.0;;;26.5;50.7
72124;BME280;59998;37.126;-8.538;2022-08-03T10:42:11;101017.6;;;26.5;49.9
72124;BME280;59998;37.126;-8.538;2022-08-03T10:47:00;101017.1;;;26.7;49.8
72124;BME280;59998;37.126;-8.538;2022-08-03T10:51:49;101018.2;;;26.7;49.7
72124;BME280;59998;37.126;-8.538;2022-08-03T10:56:40;101013.4;;;26.8;50.3
72124;BME280;59998;37.126;-8.538;2022-08-03T11:02:12;101021.1;;;27.0;49.8
72124;BME280;59998;37.126;-8.538;2022-08-03T11:07:21;101016.0;;;27.0;50.1
72124;BME280;59998;37.126;-8.538;2022-08-03T11:12:20;101024.2;;;27.0;50.0
72124;BME280;59998;37.126;-8.538;2022-08-03T11:17:07;101011.1;;;27.1;50.0
72124;BME280;59998;37.126;-8.538;2022-08-03T11:21:54;101014.5;;;27.2;49.4
72124;BME280;59998;37.126;-8.538;2022-08-03T11:26:49;101008.1;;;27.3;49.4
72124;BME280;59998;37.126;-8.538;2022-08-03T11:31:47;101005.9;;;27.2;50.9
72124;BME280;59998;37.126;-8.538;2022-08-03T11:41:43;100999.7;;;27.1;51.2
72124;BME280;59998;37.126;-8.538;2022-08-03T11:46:37;101008.2;;;27.2;50.3
72124;BME280;59998;37.126;-8.538;2022-08-03T11:51:25;101011.8;;;27.2;50.8
72124;BME280;59998;37.126;-8.538;2022-08-03T11:56:12;101009.6;;;27.0;51.3
72124;BME280;59998;37.126;-8.538;2022-08-03T12:01:05;101000.2;;;27.0;51.2
72124;BME280;59998;37.126;-8.538;2022-08-03T12:05:52;100998.2;;;27.0;50.6
72124;BME280;59998;37.126;-8.538;2022-08-03T12:10:44;100999.0;;;27.3;49.8
72124;BME280;59998;37.126;-8.538;2022-08-03T12:15:31;100973.2;;;27.7;47.1
72124;BME280;59998;37.126;-8.538;2022-08-03T12:20:24;100977.2;;;27.9;45.8
72124;BME280;59998;37.126;-8.538;2022-08-03T12:25:26;100981.3;;;28.1;45.2
72124;BME280;59998;37.126;-8.538;2022-08-03T12:30:13;100975.5;;;28.3;43.1
72124;BME280;59998;37.126;-8.538;2022-08-03T12:34:59;100965.8;;;28.4;40.3
72124;BME280;59998;37.126;-8.538;2022-08-03T12:39:48;100962.5;;;28.7;38.6
72124;BME280;59998;37.126;-8.538;2022-08-03T12:44:35;100976.0;;;28.5;43.7
72124;BME280;59998;37.126;-8.538;2022-08-03T12:49:21;100970.3;;;28.3;44.7
72124;BME280;59998;37.126;-8.538;2022-08-03T12:54:08;100968.7;;;28.3;44.9
72124;BME280;59998;37.126;-8.538;2022-08-03T12:58:55;100971.8;;;28.4;43.0
72124;BME280;59998;37.126;-8.538;2022-08-03T13:03:43;100967.4;;;28.4;42.6
72124;BME280;59998;37.126;-8.538;2022-08-03T13:08:30;100957.4;;;28.5;42.9
72124;BME280;59998;37.126;-8.538;2022-08-03T13:13:17;100961.8;;;28.6;44.7
72124;BME280;59998;37.126;-8.538;2022-08-03T13:18:03;100970.9;;;28.4;48.4
72124;BME280;59998;37.126;-8.538;2022-08-03T13:22:50;100952.7;;;28.2;47.9
72124;BME280;59998;37.126;-8.538;2022-08-03T13:27:36;100962.1;;;28.5;47.6
72124;BME280;59998;37.126;-8.538;2022-08-03T13:32:23;100956.6;;;28.7;46.8
72124;BME280;59998;37.126;-8.538;2022-08-03T13:37:09;100940.0;;;28.7;46.2
72124;BME280;59998;37.126;-8.538;2022-08-03T13:41:57;100937.2;;;28.7;46.0
72124;BME280;59998;37.126;-8.538;2022-08-03T13:46:44;100938.6;;;28.8;45.3
72124;BME280;59998;37.126;-8.538;2022-08-03T13:51:30;100928.3;;;28.8;44.8
72124;BME280;59998;37.126;-8.538;2022-08-03T13:56:17;100926.7;;;28.8;44.5
72124;BME280;59998;37.126;-8.538;2022-08-03T14:01:03;100921.3;;;29.0;44.7
72124;BME280;59998;37.126;-8.538;2022-08-03T14:05:50;100912.7;;;29.1;44.4
72124;BME280;59998;37.126;-8.538;2022-08-03T14:10:38;100904.3;;;29.1;43.4
72124;BME280;59998;37.126;-8.538;2022-08-03T14:15:25;100922.0;;;29.3;43.0
72124;BME280;59998;37.126;-8.538;2022-08-03T14:20:11;100911.1;;;29.2;42.8
72124;BME280;59998;37.126;-8.538;2022-08-03T14:24:58;100911.2;;;29.2;42.3
72124;BME280;59998;37.126;-8.538;2022-08-03T14:29:44;100898.8;;;29.5;41.9
72124;BME280;59998;37.126;-8.538;2022-08-03T14:34:31;100891.8;;;29.6;41.5
72124;BME280;59998;37.126;-8.538;2022-08-03T14:39:17;100886.3;;;29.7;38.4
72124;BME280;59998;37.126;-8.538;2022-08-03T14:44:03;100887.7;;;29.9;39.1
72124;BME280;59998;37.126;-8.538;2022-08-03T14:48:50;100883.5;;;30.0;37.4
72124;BME280;59998;37.126;-8.538;2022-08-03T14:53:37;100893.0;;;30.2;37.7
72124;BME280;59998;37.126;-8.538;2022-08-03T14:58:24;100874.5;;;30.1;37.3
72124;BME280;59998;37.126;-8.538;2022-08-03T15:03:12;100882.9;;;30.3;37.8
72124;BME280;59998;37.126;-8.538;2022-08-03T15:07:59;100877.6;;;30.2;37.9
72124;BME280;59998;37.126;-8.538;2022-08-03T15:12:45;100876.5;;;30.0;36.4
72124;BME280;59998;37.126;-8.538;2022-08-03T15:17:31;100880.1;;;30.3;36.6
72124;BME280;59998;37.126;-8.538;2022-08-03T15:22:18;100870.5;;;30.1;36.7
72124;BME280;59998;37.126;-8.538;2022-08-03T15:27:04;100860.4;;;30.2;37.4
72124;BME280;59998;37.126;-8.538;2022-08-03T15:31:51;100864.4;;;30.4;37.9
72124;BME280;59998;37.126;-8.538;2022-08-03T15:36:39;100858.3;;;30.2;38.1
72124;BME280;59998;37.126;-8.538;2022-08-03T15:41:26;100853.0;;;30.3;38.2
72124;BME280;59998;37.126;-8.538;2022-08-03T15:46:12;100862.0;;;30.4;37.9
72124;BME280;59998;37.126;-8.538;2022-08-03T15:50:59;100842.6;;;30.4;38.5
72124;BME280;59998;37.126;-8.538;2022-08-03T15:55:45;100857.3;;;30.5;39.8
72124;BME280;59998;37.126;-8.538;2022-08-03T16:00:31;100843.9;;;30.5;38.8
72124;BME280;59998;37.126;-8.538;2022-08-03T16:05:18;100841.7;;;30.4;38.2
72124;BME280;59998;37.126;-8.538;2022-08-03T16:10:04;100840.8;;;30.3;39.3
72124;BME280;59998;37.126;-8.538;2022-08-03T16:14:50;100826.0;;;30.4;40.7
72124;BME280;59998;37.126;-8.538;2022-08-03T16:19:38;100820.3;;;30.1;40.9
72124;BME280;59998;37.126;-8.538;2022-08-03T16:24:24;100811.8;;;30.0;41.0
72124;BME280;59998;37.126;-8.538;2022-08-03T16:29:10;100809.7;;;30.1;41.2
72124;BME280;59998;37.126;-8.538;2022-08-03T16:33:57;100808.7;;;30.1;42.0
72124;BME280;59998;37.126;-8.538;2022-08-03T16:38:43;100815.0;;;30.1;41.4
72124;BME280;59998;37.126;-8.538;2022-08-03T16:43:30;100802.6;;;30.1;41.0
72124;BME280;59998;37.126;-8.538;2022-08-03T16:48:17;100809.2;;;29.8;41.1
72124;BME280;59998;37.126;-8.538;2022-08-03T16:53:06;100806.5;;;29.8;41.6
72124;BME280;59998;37.126;-8.538;2022-08-03T16:57:52;100794.2;;;29.7;41.9
72124;BME280;59998;37.126;-8.538;2022-08-03T17:02:40;100790.6;;;29.5;42.4
72124;BME280;59998;37.126;-8.538;2022-08-03T17:07:26;100791.1;;;29.6;42.6
72124;BME280;59998;37.126;-8.538;2022-08-03T17:12:13;100784.0;;;29.6;42.3
72124;BME280;59998;37.126;-8.538;2022-08-03T17:17:03;100779.0;;;29.7;42.2
72124;BME280;59998;37.126;-8.538;2022-08-03T17:21:55;100789.6;;;29.8;41.5
72124;BME280;59998;37.126;-8.538;2022-08-03T17:26:45;100765.2;;;29.7;41.7
72124;BME280;59998;37.126;-8.538;2022-08-03T17:31:31;100775.9;;;29.7;42.3
72124;BME280;59998;37.126;-8.538;2022-08-03T17:36:17;100779.3;;;29.9;41.4
72124;BME280;59998;37.126;-8.538;2022-08-03T17:41:05;100768.7;;;29.9;41.3
72124;BME280;59998;37.126;-8.538;2022-08-03T17:45:51;100770.5;;;29.9;41.0
72124;BME280;59998;37.126;-8.538;2022-08-03T17:50:41;100764.4;;;29.9;42.1
72124;BME280;59998;37.126;-8.538;2022-08-03T17:55:34;100755.8;;;29.7;42.2
72124;BME280;59998;37.126;-8.538;2022-08-03T18:00:25;100763.1;;;29.7;42.6
72124;BME280;59998;37.126;-8.538;2022-08-03T18:05:12;100762.8;;;29.6;42.2
72124;BME280;59998;37.126;-8.538;2022-08-03T18:09:59;100760.0;;;29.6;42.2
72124;BME280;59998;37.126;-8.538;2022-08-03T18:14:47;100754.4;;;29.8;42.7
72124;BME280;59998;37.126;-8.538;2022-08-03T18:19:38;100766.1;;;29.7;42.8
72124;BME280;59998;37.126;-8.538;2022-08-03T18:24:27;100757.0;;;29.8;41.7
72124;BME280;59998;37.126;-8.538;2022-08-03T18:29:14;100765.3;;;29.8;41.7
72124;BME280;59998;37.126;-8.538;2022-08-03T18:34:01;100767.1;;;29.9;41.5
72124;BME280;59998;37.126;-8.538;2022-08-03T18:38:48;100760.3;;;29.7;41.8
72124;BME280;59998;37.126;-8.538;2022-08-03T18:43:39;100769.5;;;29.9;41.1
72124;BME280;59998;37.126;-8.538;2022-08-03T18:48:27;100769.8;;;30.1;41.1
72124;BME280;59998;37.126;-8.538;2022-08-03T18:53:28;100768.3;;;29.6;42.3
72124;BME280;59998;37.126;-8.538;2022-08-03T18:58:19;100769.3;;;29.0;43.2
72124;BME280;59998;37.126;-8.538;2022-08-03T19:03:13;100774.0;;;28.4;44.6
72124;BME280;59998;37.126;-8.538;2022-08-03T19:08:03;100783.4;;;28.0;44.5
72124;BME280;59998;37.126;-8.538;2022-08-03T19:12:50;100786.5;;;27.6;45.4
72124;BME280;59998;37.126;-8.538;2022-08-03T19:17:44;100788.8;;;27.4;45.9
72124;BME280;59998;37.126;-8.538;2022-08-03T19:22:32;100795.7;;;27.0;46.6
72124;BME280;59998;37.126;-8.538;2022-08-03T19:27:20;100794.3;;;26.9;47.8
72124;BME280;59998;37.126;-8.538;2022-08-03T19:32:07;100802.7;;;26.5;48.8
72124;BME280;59998;37.126;-8.538;2022-08-03T19:36:54;100791.2;;;26.2;49.0
72124;BME280;59998;37.126;-8.538;2022-08-03T19:41:44;100801.5;;;26.2;49.3
72124;BME280;59998;37.126;-8.538;2022-08-03T19:46:41;100815.5;;;26.0;49.8
72124;BME280;59998;37.126;-8.538;2022-08-03T19:51:30;100812.5;;;25.9;50.2
72124;BME280;59998;37.126;-8.538;2022-08-03T19:56:21;100815.9;;;25.6;50.4
72124;BME280;59998;37.126;-8.538;2022-08-03T20:01:08;100820.6;;;25.5;50.7
72124;BME280;59998;37.126;-8.538;2022-08-03T20:05:54;100818.8;;;25.3;51.4
72124;BME280;59998;37.126;-8.538;2022-08-03T20:10:41;100827.1;;;25.3;51.5
72124;BME280;59998;37.126;-8.538;2022-08-03T20:15:28;100834.6;;;25.2;51.8
72124;BME280;59998;37.126;-8.538;2022-08-03T20:20:17;100846.0;;;25.2;52.0
72124;BME280;59998;37.126;-8.538;2022-08-03T20:25:06;100843.2;;;25.3;52.1
72124;BME280;59998;37.126;-8.538;2022-08-03T20:29:53;100852.6;;;25.3;53.1
72124;BME280;59998;37.126;-8.538;2022-08-03T20:34:40;100863.7;;;25.2;53.5
72124;BME280;59998;37.126;-8.538;2022-08-03T20:39:26;100867.0;;;25.0;54.6
72124;BME280;59998;37.126;-8.538;2022-08-03T20:44:15;100874.9;;;24.8;55.1
72124;BME280;59998;37.126;-8.538;2022-08-03T20:49:02;100879.2;;;24.8;55.3
72124;BME280;59998;37.126;-8.538;2022-08-03T20:53:49;100889.9;;;24.7;55.5
72124;BME280;59998;37.126;-8.538;2022-08-03T20:58:36;100889.9;;;24.5;55.9
72124;BME280;59998;37.126;-8.538;2022-08-03T21:03:23;100904.1;;;24.5;56.5
72124;BME280;59998;37.126;-8.538;2022-08-03T21:08:11;100908.9;;;24.2;57.0
72124;BME280;59998;37.126;-8.538;2022-08-03T21:13:00;100913.1;;;24.3;57.0
72124;BME280;59998;37.126;-8.538;2022-08-03T21:17:49;100917.1;;;24.4;57.0
72124;BME280;59998;37.126;-8.538;2022-08-03T21:22:37;100914.7;;;24.4;56.9
72124;BME280;59998;37.126;-8.538;2022-08-03T21:27:24;100923.0;;;24.2;57.3
72124;BME280;59998;37.126;-8.538;2022-08-03T21:32:16;100924.9;;;24.3;57.5
72124;BME280;59998;37.126;-8.538;2022-08-03T21:37:02;100925.7;;;24.3;57.6
72124;BME280;59998;37.126;-8.538;2022-08-03T21:41:48;100924.1;;;24.1;58.1
72124;BME280;59998;37.126;-8.538;2022-08-03T21:46:36;100922.6;;;24.2;58.4
72124;BME280;59998;37.126;-8.538;2022-08-03T21:51:25;100924.5;;;24.0;59.0
72124;BME280;59998;37.126;-8.538;2022-08-03T21:56:12;100932.8;;;24.1;58.8
72124;BME280;59998;37.126;-8.538;2022-08-03T22:01:02;100933.6;;;24.2;58.5
72124;BME280;59998;37.126;-8.538;2022-08-03T22:05:48;100936.3;;;24.1;59.0
72124;BME280;59998;37.126;-8.538;2022-08-03T22:10:35;100923.8;;;24.0;59.7
72124;BME280;59998;37.126;-8.538;2022-08-03T22:15:24;100925.7;;;24.1;59.5
72124;BME280;59998;37.126;-8.538;2022-08-03T22:20:12;100930.8;;;23.8;60.9
72124;BME280;59998;37.126;-8.538;2022-08-03T22:25:04;100928.4;;;23.7;61.2
72124;BME280;59998;37.126;-8.538;2022-08-03T22:29:51;100926.1;;;23.5;61.8
72124;BME280;59998;37.126;-8.538;2022-08-03T22:34:38;100924.5;;;23.5;61.9
72124;BME280;59998;37.126;-8.538;2022-08-03T22:39:28;100916.7;;;23.6;61.8
72124;BME280;59998;37.126;-8.538;2022-08-03T22:44:15;100912.8;;;23.5;61.9
72124;BME280;59998;37.126;-8.538;2022-08-03T22:49:04;100924.1;;;23.5;61.8
72124;BME280;59998;37.126;-8.538;2022-08-03T22:53:51;100922.5;;;23.5;61.4
72124;BME280;59998;37.126;-8.538;2022-08-03T22:58:37;100924.1;;;23.7;61.0
72124;BME280;59998;37.126;-8.538;2022-08-03T23:03:26;100928.1;;;23.8;60.6
72124;BME280;59998;37.126;-8.538;2022-08-03T23:08:19;100923.4;;;23.6;61.0
72124;BME280;59998;37.126;-8.538;2022-08-03T23:13:06;100923.0;;;23.6;60.7
72124;BME280;59998;37.126;-8.538;2022-08-03T23:17:54;100923.8;;;23.8;60.4
72124;BME280;59998;37.126;-8.538;2022-08-03T23:22:40;100924.1;;;23.7;60.4
72124;BME280;59998;37.126;-8.538;2022-08-03T23:27:27;100919.1;;;23.8;60.3
72124;BME280;59998;37.126;-8.538;2022-08-03T23:32:18;100922.2;;;23.7;60.9
72124;BME280;59998;37.126;-8.538;2022-08-03T23:37:05;100915.1;;;23.7;60.4
72124;BME280;59998;37.126;-8.538;2022-08-03T23:41:52;100908.5;;;23.8;60.1
72124;BME280;59998;37.126;-8.538;2022-08-03T23:46:38;100917.1;;;23.9;60.2
72124;BME280;59998;37.126;-8.538;2022-08-03T23:51:38;100923.0;;;23.8;60.1
72124;BME280;59998;37.126;-8.538;2022-08-03T23:56:32;100924.2;;;23.9;60.2
